sensor_id;sensor_type;location;lat;lon;timestamp;P1;durP1;ratioP1;P2;durP2;ratioP2
19059;SDS011;9663;48.996;8.334;2023-02-15T00:01:10;11.20;;;5.68;;
19059;SDS011;9663;48.996;8.334;2023-02-15T00:03:36;11.40;;;5.25;;
19059;SDS011;9663;48.996;8.334;2023-02-15T00:06:03;12.02;;;5.68;;
19059;SDS011;9663;48.996;8.334;2023-02-15T00:08:30;12.23;;;5.70;;
19059;SDS011;9663;48.996;8.334;2023-02-15T00:11:29;12.63;;;5.60;;
19059;SDS011;9663;48.996;8.334;2023-02-15T00:16:48;10.27;;;4.70;;
19059;SDS011;9663;48.996;8.334;2023-02-15T00:19:17;10.23;;;5.25;;
19059;SDS011;9663;48.996;8.334;2023-02-15T00:21:45;12.00;;;5.70;;
19059;SDS011;9663;48.996;8.334;2023-02-15T00:24:14;10.98;;;5.38;;
19059;SDS011;9663;48.996;8.334;2023-02-15T00:26:43;10.05;;;5.00;;
19059;SDS011;9663;48.996;8.334;2023-02-15T00:29:10;13.02;;;5.10;;
19059;SDS011;9663;48.996;8.334;2023-02-15T00:31:37;10.68;;;4.50;;
19059;SDS011;9663;48.996;8.334;2023-02-15T00:34:05;11.48;;;5.43;;
19059;SDS011;9663;48.996;8.334;2023-02-15T00:36:37;12.80;;;4.95;;
19059;SDS011;9663;48.996;8.334;2023-02-15T00:39:03;10.73;;;5.13;;
19059;SDS011;9663;48.996;8.334;2023-02-15T00:41:29;11.88;;;5.07;;
19059;SDS011;9663;48.996;8.334;2023-02-15T00:43:56;11.27;;;5.40;;
19059;SDS011;9663;48.996;8.334;2023-02-15T00:46:22;11.30;;;4.90;;
19059;SDS011;9663;48.996;8.334;2023-02-15T00:48:48;12.90;;;5.47;;
19059;SDS011;9663;48.996;8.334;2023-02-15T00:51:13;10.68;;;5.05;;
19059;SDS011;9663;48.996;8.334;2023-02-15T00:53:39;11.00;;;5.15;;
19059;SDS011;9663;48.996;8.334;2023-02-15T00:56:05;11.30;;;5.30;;
19059;SDS011;9663;48.996;8.334;2023-02-15T00:58:30;11.68;;;5.07;;
19059;SDS011;9663;48.996;8.334;2023-02-15T01:01:02;11.50;;;4.72;;
19059;SDS011;9663;48.996;8.334;2023-02-15T01:03:35;9.48;;;4.80;;
19059;SDS011;9663;48.996;8.334;2023-02-15T01:06:02;11.15;;;4.93;;
19059;SDS011;9663;48.996;8.334;2023-02-15T01:08:28;10.75;;;4.82;;
19059;SDS011;9663;48.996;8.334;2023-02-15T01:10:54;9.90;;;4.95;;
19059;SDS011;9663;48.996;8.334;2023-02-15T01:13:20;11.73;;;5.13;;
19059;SDS011;9663;48.996;8.334;2023-02-15T01:23:08;10.68;;;4.28;;
19059;SDS011;9663;48.996;8.334;2023-02-15T01:25:34;11.32;;;5.03;;
19059;SDS011;9663;48.996;8.334;2023-02-15T01:28:01;11.95;;;5.32;;
19059;SDS011;9663;48.996;8.334;2023-02-15T01:30:27;12.32;;;5.00;;
19059;SDS011;9663;48.996;8.334;2023-02-15T01:32:53;11.88;;;4.75;;
19059;SDS011;9663;48.996;8.334;2023-02-15T01:35:18;10.80;;;5.00;;
19059;SDS011;9663;48.996;8.334;2023-02-15T01:37:44;11.45;;;4.63;;
19059;SDS011;9663;48.996;8.334;2023-02-15T01:40:14;10.90;;;4.47;;
19059;SDS011;9663;48.996;8.334;2023-02-15T01:42:43;11.90;;;4.72;;
19059;SDS011;9663;48.996;8.334;2023-02-15T01:45:29;10.32;;;4.53;;
19059;SDS011;9663;48.996;8.334;2023-02-15T01:50:40;9.63;;;4.85;;
19059;SDS011;9663;48.996;8.334;2023-02-15T01:55:59;11.40;;;5.03;;
19059;SDS011;9663;48.996;8.334;2023-02-15T01:58:32;9.52;;;4.30;;
19059;SDS011;9663;48.996;8.334;2023-02-15T02:01:00;10.15;;;4.70;;
19059;SDS011;9663;48.996;8.334;2023-02-15T02:03:50;10.00;;;4.93;;
19059;SDS011;9663;48.996;8.334;2023-02-15T02:06:44;10.98;;;5.05;;
19059;SDS011;9663;48.996;8.334;2023-02-15T02:09:13;9.30;;;4.25;;
19059;SDS011;9663;48.996;8.334;2023-02-15T02:11:39;11.63;;;5.20;;
19059;SDS011;9663;48.996;8.334;2023-02-15T02:14:09;9.82;;;4.88;;
19059;SDS011;9663;48.996;8.334;2023-02-15T02:28:08;9.88;;;4.55;;
19059;SDS011;9663;48.996;8.334;2023-02-15T02:42:24;11.07;;;4.63;;
19059;SDS011;9663;48.996;8.334;2023-02-15T02:45:03;9.70;;;4.30;;
19059;SDS011;9663;48.996;8.334;2023-02-15T02:50:26;9.85;;;4.75;;
19059;SDS011;9663;48.996;8.334;2023-02-15T02:52:55;10.25;;;4.60;;
19059;SDS011;9663;48.996;8.334;2023-02-15T02:55:38;9.40;;;4.22;;
19059;SDS011;9663;48.996;8.334;2023-02-15T02:58:20;10.57;;;4.90;;
19059;SDS011;9663;48.996;8.334;2023-02-15T03:01:12;10.10;;;4.30;;
19059;SDS011;9663;48.996;8.334;2023-02-15T03:04:09;9.77;;;4.57;;
19059;SDS011;9663;48.996;8.334;2023-02-15T03:09:25;10.18;;;4.57;;
19059;SDS011;9663;48.996;8.334;2023-02-15T03:12:08;8.50;;;3.92;;
19059;SDS011;9663;48.996;8.334;2023-02-15T03:14:38;9.77;;;4.57;;
19059;SDS011;9663;48.996;8.334;2023-02-15T03:17:07;9.45;;;4.18;;
19059;SDS011;9663;48.996;8.334;2023-02-15T03:19:36;9.85;;;3.97;;
19059;SDS011;9663;48.996;8.334;2023-02-15T03:22:10;10.57;;;4.18;;
19059;SDS011;9663;48.996;8.334;2023-02-15T03:25:02;8.80;;;4.50;;
19059;SDS011;9663;48.996;8.334;2023-02-15T03:27:44;9.75;;;4.03;;
19059;SDS011;9663;48.996;8.334;2023-02-15T03:30:15;9.55;;;4.32;;
19059;SDS011;9663;48.996;8.334;2023-02-15T03:32:47;8.23;;;3.97;;
19059;SDS011;9663;48.996;8.334;2023-02-15T03:35:16;9.38;;;4.18;;
19059;SDS011;9663;48.996;8.334;2023-02-15T03:37:47;8.20;;;3.92;;
19059;SDS011;9663;48.996;8.334;2023-02-15T03:40:25;10.35;;;4.32;;
19059;SDS011;9663;48.996;8.334;2023-02-15T03:45:51;9.38;;;4.00;;
19059;SDS011;9663;48.996;8.334;2023-02-15T03:48:35;8.63;;;3.75;;
19059;SDS011;9663;48.996;8.334;2023-02-15T03:51:13;7.57;;;3.60;;
19059;SDS011;9663;48.996;8.334;2023-02-15T03:53:58;7.97;;;3.65;;
19059;SDS011;9663;48.996;8.334;2023-02-15T03:56:38;9.02;;;3.85;;
19059;SDS011;9663;48.996;8.334;2023-02-15T03:59:07;8.95;;;4.38;;
19059;SDS011;9663;48.996;8.334;2023-02-15T04:01:58;8.63;;;3.88;;
19059;SDS011;9663;48.996;8.334;2023-02-15T04:04:54;8.43;;;3.85;;
19059;SDS011;9663;48.996;8.334;2023-02-15T04:07:20;8.80;;;3.90;;
19059;SDS011;9663;48.996;8.334;2023-02-15T04:09:46;9.20;;;4.10;;
19059;SDS011;9663;48.996;8.334;2023-02-15T04:12:30;9.27;;;3.92;;
19059;SDS011;9663;48.996;8.334;2023-02-15T04:14:56;8.70;;;4.05;;
19059;SDS011;9663;48.996;8.334;2023-02-15T04:17:40;8.90;;;3.88;;
19059;SDS011;9663;48.996;8.334;2023-02-15T04:20:06;10.35;;;4.18;;
19059;SDS011;9663;48.996;8.334;2023-02-15T04:22:52;8.38;;;3.80;;
19059;SDS011;9663;48.996;8.334;2023-02-15T04:25:36;8.57;;;3.65;;
19059;SDS011;9663;48.996;8.334;2023-02-15T04:28:01;8.45;;;3.92;;
19059;SDS011;9663;48.996;8.334;2023-02-15T04:30:27;8.13;;;3.55;;
19059;SDS011;9663;48.996;8.334;2023-02-15T04:32:53;9.52;;;3.35;;
19059;SDS011;9663;48.996;8.334;2023-02-15T04:35:21;8.63;;;4.18;;
19059;SDS011;9663;48.996;8.334;2023-02-15T04:37:47;9.52;;;4.40;;
19059;SDS011;9663;48.996;8.334;2023-02-15T04:40:14;8.65;;;3.92;;
19059;SDS011;9663;48.996;8.334;2023-02-15T04:42:40;8.18;;;3.95;;
19059;SDS011;9663;48.996;8.334;2023-02-15T04:45:06;9.90;;;4.10;;
19059;SDS011;9663;48.996;8.334;2023-02-15T04:47:32;8.75;;;4.25;;
19059;SDS011;9663;48.996;8.334;2023-02-15T04:49:58;8.73;;;4.00;;
19059;SDS011;9663;48.996;8.334;2023-02-15T04:52:23;9.13;;;3.60;;
19059;SDS011;9663;48.996;8.334;2023-02-15T04:54:49;8.15;;;3.50;;
19059;SDS011;9663;48.996;8.334;2023-02-15T04:57:15;9.25;;;4.28;;
19059;SDS011;9663;48.996;8.334;2023-02-15T04:59:41;8.13;;;3.72;;
19059;SDS011;9663;48.996;8.334;2023-02-15T05:02:06;8.45;;;3.65;;
19059;SDS011;9663;48.996;8.334;2023-02-15T05:04:32;9.77;;;4.13;;
19059;SDS011;9663;48.996;8.334;2023-02-15T05:06:58;8.13;;;3.65;;
19059;SDS011;9663;48.996;8.334;2023-02-15T05:09:23;9.57;;;4.22;;
19059;SDS011;9663;48.996;8.334;2023-02-15T05:11:49;8.18;;;4.05;;
19059;SDS011;9663;48.996;8.334;2023-02-15T05:14:14;9.57;;;4.15;;
19059;SDS011;9663;48.996;8.334;2023-02-15T05:16:40;8.00;;;3.22;;
19059;SDS011;9663;48.996;8.334;2023-02-15T05:19:06;8.70;;;4.05;;
19059;SDS011;9663;48.996;8.334;2023-02-15T05:21:32;8.60;;;3.58;;
19059;SDS011;9663;48.996;8.334;2023-02-15T05:23:58;9.05;;;4.05;;
19059;SDS011;9663;48.996;8.334;2023-02-15T05:26:24;7.82;;;3.78;;
19059;SDS011;9663;48.996;8.334;2023-02-15T05:29:09;10.27;;;3.90;;
19059;SDS011;9663;48.996;8.334;2023-02-15T05:31:35;8.85;;;4.30;;
19059;SDS011;9663;48.996;8.334;2023-02-15T05:34:02;8.95;;;4.07;;
19059;SDS011;9663;48.996;8.334;2023-02-15T05:36:28;9.43;;;4.00;;
19059;SDS011;9663;48.996;8.334;2023-02-15T05:38:54;8.98;;;3.70;;
19059;SDS011;9663;48.996;8.334;2023-02-15T05:41:20;10.50;;;4.45;;
19059;SDS011;9663;48.996;8.334;2023-02-15T05:43:46;9.95;;;4.40;;
19059;SDS011;9663;48.996;8.334;2023-02-15T05:46:12;8.52;;;4.07;;
19059;SDS011;9663;48.996;8.334;2023-02-15T05:48:38;8.55;;;4.30;;
19059;SDS011;9663;48.996;8.334;2023-02-15T05:51:07;8.52;;;3.88;;
19059;SDS011;9663;48.996;8.334;2023-02-15T05:53:38;8.27;;;3.97;;
19059;SDS011;9663;48.996;8.334;2023-02-15T05:56:07;8.65;;;3.90;;
19059;SDS011;9663;48.996;8.334;2023-02-15T05:58:37;9.00;;;3.97;;
19059;SDS011;9663;48.996;8.334;2023-02-15T06:03:39;9.23;;;4.15;;
19059;SDS011;9663;48.996;8.334;2023-02-15T06:06:05;8.02;;;3.78;;
19059;SDS011;9663;48.996;8.334;2023-02-15T06:08:31;9.00;;;4.07;;
19059;SDS011;9663;48.996;8.334;2023-02-15T06:10:58;7.55;;;3.28;;
19059;SDS011;9663;48.996;8.334;2023-02-15T06:13:25;8.50;;;3.72;;
19059;SDS011;9663;48.996;8.334;2023-02-15T06:15:51;8.23;;;3.70;;
19059;SDS011;9663;48.996;8.334;2023-02-15T06:18:16;8.18;;;3.70;;
19059;SDS011;9663;48.996;8.334;2023-02-15T06:20:42;8.07;;;3.47;;
19059;SDS011;9663;48.996;8.334;2023-02-15T06:23:11;8.75;;;3.78;;
19059;SDS011;9663;48.996;8.334;2023-02-15T06:25:37;8.27;;;3.80;;
19059;SDS011;9663;48.996;8.334;2023-02-15T06:28:03;8.43;;;3.70;;
19059;SDS011;9663;48.996;8.334;2023-02-15T06:30:28;9.68;;;3.83;;
19059;SDS011;9663;48.996;8.334;2023-02-15T06:32:54;9.52;;;3.80;;
19059;SDS011;9663;48.996;8.334;2023-02-15T06:35:20;10.32;;;4.10;;
19059;SDS011;9663;48.996;8.334;2023-02-15T06:37:46;8.43;;;3.53;;
19059;SDS011;9663;48.996;8.334;2023-02-15T06:40:13;8.38;;;3.67;;
19059;SDS011;9663;48.996;8.334;2023-02-15T06:42:39;8.27;;;3.40;;
19059;SDS011;9663;48.996;8.334;2023-02-15T06:45:07;8.35;;;4.05;;
19059;SDS011;9663;48.996;8.334;2023-02-15T06:47:33;9.02;;;4.00;;
19059;SDS011;9663;48.996;8.334;2023-02-15T06:49:59;7.70;;;3.72;;
19059;SDS011;9663;48.996;8.334;2023-02-15T06:52:25;8.23;;;3.47;;
19059;SDS011;9663;48.996;8.334;2023-02-15T06:54:50;8.93;;;4.18;;
19059;SDS011;9663;48.996;8.334;2023-02-15T06:57:16;8.57;;;3.80;;
19059;SDS011;9663;48.996;8.334;2023-02-15T06:59:42;9.02;;;3.85;;
19059;SDS011;9663;48.996;8.334;2023-02-15T07:02:11;8.45;;;3.90;;
19059;SDS011;9663;48.996;8.334;2023-02-15T07:04:38;8.95;;;3.92;;
19059;SDS011;9663;48.996;8.334;2023-02-15T07:07:03;10.07;;;4.28;;
19059;SDS011;9663;48.996;8.334;2023-02-15T07:09:32;10.48;;;4.72;;
19059;SDS011;9663;48.996;8.334;2023-02-15T07:11:58;11.25;;;4.68;;
19059;SDS011;9663;48.996;8.334;2023-02-15T07:14:42;8.82;;;3.80;;
19059;SDS011;9663;48.996;8.334;2023-02-15T07:17:07;11.38;;;4.53;;
19059;SDS011;9663;48.996;8.334;2023-02-15T07:19:33;8.40;;;3.50;;
19059;SDS011;9663;48.996;8.334;2023-02-15T07:21:59;8.25;;;4.13;;
19059;SDS011;9663;48.996;8.334;2023-02-15T07:24:25;9.13;;;4.13;;
19059;SDS011;9663;48.996;8.334;2023-02-15T07:26:50;9.05;;;3.72;;
19059;SDS011;9663;48.996;8.334;2023-02-15T07:29:16;7.40;;;3.42;;
19059;SDS011;9663;48.996;8.334;2023-02-15T07:31:42;9.45;;;4.03;;
19059;SDS011;9663;48.996;8.334;2023-02-15T07:34:10;9.13;;;3.65;;
19059;SDS011;9663;48.996;8.334;2023-02-15T07:36:36;8.40;;;3.42;;
19059;SDS011;9663;48.996;8.334;2023-02-15T07:39:02;7.55;;;2.97;;
19059;SDS011;9663;48.996;8.334;2023-02-15T07:41:28;7.60;;;3.22;;
19059;SDS011;9663;48.996;8.334;2023-02-15T07:43:54;9.07;;;3.53;;
19059;SDS011;9663;48.996;8.334;2023-02-15T07:46:20;7.60;;;3.13;;
19059;SDS011;9663;48.996;8.334;2023-02-15T07:48:46;8.15;;;3.45;;
19059;SDS011;9663;48.996;8.334;2023-02-15T07:51:12;8.43;;;3.85;;
19059;SDS011;9663;48.996;8.334;2023-02-15T07:53:39;8.35;;;3.33;;
19059;SDS011;9663;48.996;8.334;2023-02-15T07:56:09;8.38;;;3.55;;
19059;SDS011;9663;48.996;8.334;2023-02-15T07:58:37;6.78;;;3.20;;
19059;SDS011;9663;48.996;8.334;2023-02-15T08:01:16;9.75;;;3.03;;
19059;SDS011;9663;48.996;8.334;2023-02-15T08:03:54;8.70;;;3.33;;
19059;SDS011;9663;48.996;8.334;2023-02-15T08:06:24;8.77;;;3.22;;
19059;SDS011;9663;48.996;8.334;2023-02-15T08:08:52;6.63;;;2.95;;
19059;SDS011;9663;48.996;8.334;2023-02-15T08:11:20;8.90;;;3.30;;
19059;SDS011;9663;48.996;8.334;2023-02-15T08:13:54;8.90;;;4.03;;
19059;SDS011;9663;48.996;8.334;2023-02-15T08:16:33;7.95;;;3.17;;
19059;SDS011;9663;48.996;8.334;2023-02-15T08:21:56;8.57;;;3.13;;
19059;SDS011;9663;48.996;8.334;2023-02-15T08:24:26;9.52;;;4.22;;
19059;SDS011;9663;48.996;8.334;2023-02-15T08:26:55;13.48;;;6.13;;
19059;SDS011;9663;48.996;8.334;2023-02-15T08:29:22;11.45;;;5.40;;
19059;SDS011;9663;48.996;8.334;2023-02-15T08:32:04;9.73;;;4.47;;
19059;SDS011;9663;48.996;8.334;2023-02-15T08:34:35;10.88;;;4.22;;
19059;SDS011;9663;48.996;8.334;2023-02-15T08:37:04;9.43;;;3.95;;
19059;SDS011;9663;48.996;8.334;2023-02-15T08:39:30;8.45;;;3.72;;
19059;SDS011;9663;48.996;8.334;2023-02-15T08:41:56;10.57;;;4.68;;
19059;SDS011;9663;48.996;8.334;2023-02-15T08:44:22;10.45;;;4.32;;
19059;SDS011;9663;48.996;8.334;2023-02-15T08:46:48;9.50;;;4.28;;
19059;SDS011;9663;48.996;8.334;2023-02-15T08:49:18;10.30;;;4.68;;
19059;SDS011;9663;48.996;8.334;2023-02-15T08:51:47;9.32;;;3.97;;
19059;SDS011;9663;48.996;8.334;2023-02-15T08:54:15;10.45;;;4.53;;
19059;SDS011;9663;48.996;8.334;2023-02-15T08:56:44;11.02;;;4.22;;
19059;SDS011;9663;48.996;8.334;2023-02-15T08:59:15;9.50;;;4.20;;
19059;SDS011;9663;48.996;8.334;2023-02-15T09:01:48;10.18;;;3.85;;
19059;SDS011;9663;48.996;8.334;2023-02-15T09:04:16;10.00;;;4.38;;
19059;SDS011;9663;48.996;8.334;2023-02-15T09:06:43;12.90;;;5.10;;
19059;SDS011;9663;48.996;8.334;2023-02-15T09:09:10;9.48;;;4.07;;
19059;SDS011;9663;48.996;8.334;2023-02-15T09:11:38;12.70;;;5.00;;
19059;SDS011;9663;48.996;8.334;2023-02-15T09:14:07;11.15;;;4.30;;
19059;SDS011;9663;48.996;8.334;2023-02-15T09:16:39;10.55;;;4.70;;
19059;SDS011;9663;48.996;8.334;2023-02-15T09:19:09;11.13;;;4.68;;
19059;SDS011;9663;48.996;8.334;2023-02-15T09:21:36;11.50;;;4.68;;
19059;SDS011;9663;48.996;8.334;2023-02-15T09:24:07;9.82;;;4.22;;
19059;SDS011;9663;48.996;8.334;2023-02-15T09:26:37;11.77;;;4.35;;
19059;SDS011;9663;48.996;8.334;2023-02-15T09:29:08;9.85;;;4.43;;
19059;SDS011;9663;48.996;8.334;2023-02-15T09:31:43;11.02;;;4.25;;
19059;SDS011;9663;48.996;8.334;2023-02-15T09:34:14;10.88;;;4.40;;
19059;SDS011;9663;48.996;8.334;2023-02-15T09:36:42;9.98;;;4.30;;
19059;SDS011;9663;48.996;8.334;2023-02-15T09:39:09;10.63;;;4.32;;
19059;SDS011;9663;48.996;8.334;2023-02-15T09:42:04;9.68;;;4.10;;
19059;SDS011;9663;48.996;8.334;2023-02-15T09:47:54;9.45;;;4.15;;
19059;SDS011;9663;48.996;8.334;2023-02-15T10:02:06;9.38;;;4.20;;
19059;SDS011;9663;48.996;8.334;2023-02-15T10:05:00;12.55;;;4.60;;
19059;SDS011;9663;48.996;8.334;2023-02-15T10:16:31;9.40;;;4.38;;
19059;SDS011;9663;48.996;8.334;2023-02-15T10:25:51;8.63;;;3.75;;
19059;SDS011;9663;48.996;8.334;2023-02-15T10:31:48;9.23;;;4.28;;
19059;SDS011;9663;48.996;8.334;2023-02-15T10:45:46;10.68;;;5.07;;
19059;SDS011;9663;48.996;8.334;2023-02-15T10:48:33;9.30;;;4.35;;
19059;SDS011;9663;48.996;8.334;2023-02-15T10:51:25;11.65;;;5.45;;
19059;SDS011;9663;48.996;8.334;2023-02-15T11:06:21;10.27;;;4.47;;
19059;SDS011;9663;48.996;8.334;2023-02-15T11:08:54;11.10;;;5.03;;
19059;SDS011;9663;48.996;8.334;2023-02-15T11:11:27;10.85;;;4.90;;
19059;SDS011;9663;48.996;8.334;2023-02-15T11:14:02;10.90;;;4.90;;
19059;SDS011;9663;48.996;8.334;2023-02-15T11:16:40;10.35;;;4.50;;
19059;SDS011;9663;48.996;8.334;2023-02-15T11:19:19;10.50;;;4.90;;
19059;SDS011;9663;48.996;8.334;2023-02-15T11:21:57;10.60;;;5.30;;
19059;SDS011;9663;48.996;8.334;2023-02-15T11:24:27;9.60;;;4.47;;
19059;SDS011;9663;48.996;8.334;2023-02-15T11:35:31;11.35;;;4.97;;
19059;SDS011;9663;48.996;8.334;2023-02-15T11:38:21;11.15;;;5.03;;
19059;SDS011;9663;48.996;8.334;2023-02-15T11:40:57;11.80;;;4.55;;
19059;SDS011;9663;48.996;8.334;2023-02-15T11:46:38;9.82;;;4.70;;
19059;SDS011;9663;48.996;8.334;2023-02-15T11:49:10;9.68;;;4.72;;
19059;SDS011;9663;48.996;8.334;2023-02-15T11:51:51;10.90;;;5.25;;
19059;SDS011;9663;48.996;8.334;2023-02-15T11:54:21;11.93;;;5.63;;
19059;SDS011;9663;48.996;8.334;2023-02-15T11:56:55;11.75;;;5.85;;
19059;SDS011;9663;48.996;8.334;2023-02-15T11:59:29;11.55;;;5.05;;
19059;SDS011;9663;48.996;8.334;2023-02-15T12:02:01;13.18;;;6.65;;
19059;SDS011;9663;48.996;8.334;2023-02-15T12:04:29;13.32;;;5.60;;
19059;SDS011;9663;48.996;8.334;2023-02-15T12:07:02;10.88;;;5.13;;
19059;SDS011;9663;48.996;8.334;2023-02-15T12:12:41;11.93;;;5.95;;
19059;SDS011;9663;48.996;8.334;2023-02-15T12:15:07;11.80;;;5.32;;
19059;SDS011;9663;48.996;8.334;2023-02-15T12:17:52;11.75;;;6.13;;
19059;SDS011;9663;48.996;8.334;2023-02-15T12:23:04;10.52;;;5.38;;
19059;SDS011;9663;48.996;8.334;2023-02-15T12:25:49;11.52;;;5.38;;
19059;SDS011;9663;48.996;8.334;2023-02-15T12:30:52;13.93;;;6.47;;
19059;SDS011;9663;48.996;8.334;2023-02-15T12:33:26;12.23;;;6.03;;
19059;SDS011;9663;48.996;8.334;2023-02-15T12:36:20;12.88;;;6.32;;
19059;SDS011;9663;48.996;8.334;2023-02-15T12:41:36;13.05;;;7.13;;
19059;SDS011;9663;48.996;8.334;2023-02-15T12:44:17;13.40;;;7.13;;
19059;SDS011;9663;48.996;8.334;2023-02-15T12:47:21;10.98;;;6.18;;
19059;SDS011;9663;48.996;8.334;2023-02-15T12:49:44;11.65;;;6.00;;
19059;SDS011;9663;48.996;8.334;2023-02-15T12:52:30;11.20;;;5.63;;
19059;SDS011;9663;48.996;8.334;2023-02-15T12:54:58;11.57;;;6.07;;
19059;SDS011;9663;48.996;8.334;2023-02-15T12:58:04;11.38;;;5.82;;
19059;SDS011;9663;48.996;8.334;2023-02-15T13:01:02;11.45;;;5.63;;
19059;SDS011;9663;48.996;8.334;2023-02-15T13:03:37;10.88;;;5.22;;
19059;SDS011;9663;48.996;8.334;2023-02-15T13:06:47;9.55;;;4.88;;
19059;SDS011;9663;48.996;8.334;2023-02-15T13:11:46;10.95;;;6.00;;
19059;SDS011;9663;48.996;8.334;2023-02-15T13:14:19;10.85;;;5.78;;
19059;SDS011;9663;48.996;8.334;2023-02-15T13:16:58;11.65;;;6.25;;
19059;SDS011;9663;48.996;8.334;2023-02-15T13:22:05;10.23;;;5.75;;
19059;SDS011;9663;48.996;8.334;2023-02-15T13:24:39;10.98;;;6.03;;
19059;SDS011;9663;48.996;8.334;2023-02-15T13:27:24;12.20;;;6.65;;
19059;SDS011;9663;48.996;8.334;2023-02-15T13:30:02;10.02;;;5.53;;
19059;SDS011;9663;48.996;8.334;2023-02-15T13:32:43;10.27;;;5.57;;
19059;SDS011;9663;48.996;8.334;2023-02-15T13:35:14;10.90;;;5.85;;
19059;SDS011;9663;48.996;8.334;2023-02-15T13:40:35;13.52;;;7.30;;
19059;SDS011;9663;48.996;8.334;2023-02-15T13:54:40;12.52;;;6.60;;
19059;SDS011;9663;48.996;8.334;2023-02-15T14:00:26;11.00;;;5.75;;
19059;SDS011;9663;48.996;8.334;2023-02-15T14:09:09;10.93;;;5.47;;
19059;SDS011;9663;48.996;8.334;2023-02-15T14:11:44;10.20;;;5.40;;
19059;SDS011;9663;48.996;8.334;2023-02-15T14:31:46;10.85;;;5.88;;
19059;SDS011;9663;48.996;8.334;2023-02-15T14:34:21;11.30;;;6.28;;
19059;SDS011;9663;48.996;8.334;2023-02-15T14:37:19;11.00;;;6.32;;
19059;SDS011;9663;48.996;8.334;2023-02-15T14:40:12;12.32;;;6.13;;
19059;SDS011;9663;48.996;8.334;2023-02-15T14:45:58;12.45;;;6.10;;
19059;SDS011;9663;48.996;8.334;2023-02-15T14:48:45;12.38;;;6.97;;
19059;SDS011;9663;48.996;8.334;2023-02-15T14:54:56;11.88;;;6.63;;
19059;SDS011;9663;48.996;8.334;2023-02-15T15:05:19;12.13;;;6.07;;
19059;SDS011;9663;48.996;8.334;2023-02-15T15:08:00;12.15;;;6.32;;
19059;SDS011;9663;48.996;8.334;2023-02-15T15:10:34;11.88;;;6.03;;
19059;SDS011;9663;48.996;8.334;2023-02-15T15:22:19;10.50;;;5.78;;
19059;SDS011;9663;48.996;8.334;2023-02-15T15:24:49;9.80;;;5.75;;
19059;SDS011;9663;48.996;8.334;2023-02-15T15:27:36;11.70;;;6.28;;
19059;SDS011;9663;48.996;8.334;2023-02-15T15:38:38;11.27;;;6.47;;
19059;SDS011;9663;48.996;8.334;2023-02-15T15:47:27;9.18;;;5.65;;
19059;SDS011;9663;48.996;8.334;2023-02-15T15:50:40;10.10;;;5.90;;
19059;SDS011;9663;48.996;8.334;2023-02-15T15:53:14;9.32;;;5.50;;
19059;SDS011;9663;48.996;8.334;2023-02-15T15:55:48;9.98;;;6.40;;
19059;SDS011;9663;48.996;8.334;2023-02-15T15:58:29;10.18;;;6.30;;
19059;SDS011;9663;48.996;8.334;2023-02-15T16:01:09;10.25;;;5.97;;
19059;SDS011;9663;48.996;8.334;2023-02-15T16:03:38;9.93;;;5.97;;
19059;SDS011;9663;48.996;8.334;2023-02-15T16:06:25;12.13;;;5.93;;
19059;SDS011;9663;48.996;8.334;2023-02-15T16:09:16;10.90;;;6.35;;
19059;SDS011;9663;48.996;8.334;2023-02-15T16:11:48;10.15;;;5.88;;
19059;SDS011;9663;48.996;8.334;2023-02-15T16:14:35;12.38;;;5.93;;
19059;SDS011;9663;48.996;8.334;2023-02-15T16:17:05;9.93;;;6.00;;
19059;SDS011;9663;48.996;8.334;2023-02-15T16:19:43;12.77;;;7.07;;
19059;SDS011;9663;48.996;8.334;2023-02-15T16:22:16;11.50;;;6.47;;
19059;SDS011;9663;48.996;8.334;2023-02-15T16:28:27;10.77;;;5.93;;
19059;SDS011;9663;48.996;8.334;2023-02-15T16:31:06;10.05;;;5.60;;
19059;SDS011;9663;48.996;8.334;2023-02-15T16:33:39;9.93;;;5.20;;
19059;SDS011;9663;48.996;8.334;2023-02-15T16:36:10;10.85;;;6.55;;
19059;SDS011;9663;48.996;8.334;2023-02-15T16:38:59;10.82;;;5.90;;
19059;SDS011;9663;48.996;8.334;2023-02-15T16:41:33;11.10;;;5.55;;
19059;SDS011;9663;48.996;8.334;2023-02-15T16:44:03;9.85;;;5.78;;
19059;SDS011;9663;48.996;8.334;2023-02-15T16:46:39;11.43;;;5.60;;
19059;SDS011;9663;48.996;8.334;2023-02-15T16:49:16;10.52;;;5.13;;
19059;SDS011;9663;48.996;8.334;2023-02-15T16:51:53;13.27;;;6.53;;
19059;SDS011;9663;48.996;8.334;2023-02-15T16:54:31;10.65;;;5.88;;
19059;SDS011;9663;48.996;8.334;2023-02-15T16:56:58;10.65;;;5.55;;
19059;SDS011;9663;48.996;8.334;2023-02-15T16:59:35;9.77;;;5.18;;
19059;SDS011;9663;48.996;8.334;2023-02-15T17:02:14;9.93;;;5.68;;
19059;SDS011;9663;48.996;8.334;2023-02-15T17:04:44;11.43;;;5.63;;
19059;SDS011;9663;48.996;8.334;2023-02-15T17:07:32;11.25;;;5.70;;
19059;SDS011;9663;48.996;8.334;2023-02-15T17:09:58;10.35;;;5.10;;
19059;SDS011;9663;48.996;8.334;2023-02-15T17:15:40;12.43;;;5.88;;
19059;SDS011;9663;48.996;8.334;2023-02-15T17:20:43;11.23;;;5.50;;
19059;SDS011;9663;48.996;8.334;2023-02-15T17:26:01;12.32;;;5.70;;
19059;SDS011;9663;48.996;8.334;2023-02-15T17:28:51;11.13;;;5.43;;
19059;SDS011;9663;48.996;8.334;2023-02-15T17:31:27;12.85;;;7.40;;
19059;SDS011;9663;48.996;8.334;2023-02-15T17:34:01;12.85;;;6.95;;
19059;SDS011;9663;48.996;8.334;2023-02-15T17:36:28;11.65;;;6.15;;
19059;SDS011;9663;48.996;8.334;2023-02-15T17:39:04;10.98;;;5.95;;
19059;SDS011;9663;48.996;8.334;2023-02-15T17:41:47;11.70;;;5.63;;
19059;SDS011;9663;48.996;8.334;2023-02-15T17:44:12;10.80;;;5.40;;
19059;SDS011;9663;48.996;8.334;2023-02-15T17:46:40;9.80;;;5.18;;
19059;SDS011;9663;48.996;8.334;2023-02-15T17:49:10;9.60;;;5.28;;
19059;SDS011;9663;48.996;8.334;2023-02-15T17:51:53;10.02;;;5.43;;
19059;SDS011;9663;48.996;8.334;2023-02-15T17:54:18;11.95;;;5.53;;
19059;SDS011;9663;48.996;8.334;2023-02-15T17:57:05;9.93;;;5.57;;
19059;SDS011;9663;48.996;8.334;2023-02-15T17:59:37;10.55;;;5.18;;
19059;SDS011;9663;48.996;8.334;2023-02-15T18:02:21;11.32;;;5.15;;
19059;SDS011;9663;48.996;8.334;2023-02-15T18:05:10;9.07;;;4.80;;
19059;SDS011;9663;48.996;8.334;2023-02-15T18:07:58;9.73;;;4.88;;
19059;SDS011;9663;48.996;8.334;2023-02-15T18:10:43;8.80;;;4.80;;
19059;SDS011;9663;48.996;8.334;2023-02-15T18:13:27;8.02;;;4.55;;
19059;SDS011;9663;48.996;8.334;2023-02-15T18:15:53;9.52;;;4.82;;
19059;SDS011;9663;48.996;8.334;2023-02-15T18:18:20;11.38;;;5.22;;
19059;SDS011;9663;48.996;8.334;2023-02-15T18:20:48;9.98;;;5.10;;
19059;SDS011;9663;48.996;8.334;2023-02-15T18:23:14;10.80;;;4.72;;
19059;SDS011;9663;48.996;8.334;2023-02-15T18:25:40;9.45;;;4.78;;
19059;SDS011;9663;48.996;8.334;2023-02-15T18:28:07;10.30;;;5.25;;
19059;SDS011;9663;48.996;8.334;2023-02-15T18:30:34;10.25;;;4.97;;
19059;SDS011;9663;48.996;8.334;2023-02-15T18:33:05;8.73;;;4.75;;
19059;SDS011;9663;48.996;8.334;2023-02-15T18:35:31;11.52;;;5.43;;
19059;SDS011;9663;48.996;8.334;2023-02-15T18:37:57;10.15;;;5.25;;
19059;SDS011;9663;48.996;8.334;2023-02-15T18:40:26;10.35;;;4.97;;
19059;SDS011;9663;48.996;8.334;2023-02-15T18:42:53;9.93;;;4.72;;
19059;SDS011;9663;48.996;8.334;2023-02-15T18:45:22;9.40;;;5.18;;
19059;SDS011;9663;48.996;8.334;2023-02-15T18:47:56;9.88;;;4.88;;
19059;SDS011;9663;48.996;8.334;2023-02-15T18:50:21;11.23;;;5.22;;
19059;SDS011;9663;48.996;8.334;2023-02-15T18:52:53;12.20;;;5.28;;
19059;SDS011;9663;48.996;8.334;2023-02-15T18:55:20;10.40;;;4.93;;
19059;SDS011;9663;48.996;8.334;2023-02-15T18:57:52;10.07;;;4.80;;
19059;SDS011;9663;48.996;8.334;2023-02-15T19:00:24;9.98;;;4.55;;
19059;SDS011;9663;48.996;8.334;2023-02-15T19:02:52;8.55;;;4.65;;
19059;SDS011;9663;48.996;8.334;2023-02-15T19:05:19;11.07;;;5.30;;
19059;SDS011;9663;48.996;8.334;2023-02-15T19:07:46;11.50;;;5.85;;
19059;SDS011;9663;48.996;8.334;2023-02-15T19:10:18;9.65;;;4.97;;
19059;SDS011;9663;48.996;8.334;2023-02-15T19:12:47;10.55;;;5.07;;
19059;SDS011;9663;48.996;8.334;2023-02-15T19:15:15;12.00;;;5.43;;